Time;durP1;ratioP1;P1;durP2;ratioP2;P2;SDS_P1;SDS_P2;PMS_P1;PMS_P2;Temp;Humidity;BMP_temperature;BMP_pressure;BME280_temperature;BME280_humidity;BME280_pressure;Samples;Min_cycle;Max_cycle;Signal;HPM_P1;HPM_P2
2021/09/15 00:00:33;;;;;;;;;6.25;6.00;;;;;21.26;82.91;100740.09;4920790;28;45881;-71
2021/09/15 00:02:58;;;;;;;;;7.25;6.25;;;;;21.24;83.32;100743.03;4926380;28;46917;-72
2021/09/15 00:05:23;;;;;;;;;6.00;5.25;;;;;21.24;82.93;100732.28;4918419;28;45680;-71
2021/09/15 00:07:49;;;;;;;;;6.00;5.00;;;;;21.24;82.96;100739.50;4935706;28;45973;-71
2021/09/15 00:10:14;;;;;;;;;5.00;5.00;;;;;21.24;83.08;100734.13;4921541;28;45593;-71
2021/09/15 00:12:40;;;;;;;;;5.50;5.50;;;;;21.23;82.36;100735.19;4938076;28;45460;-71
2021/09/15 00:15:07;;;;;;;;;7.25;6.00;;;;;21.21;82.65;100734.56;4921294;28;45680;-71
2021/09/15 00:17:33;;;;;;;;;6.00;6.00;;;;;21.15;82.81;100730.91;4918216;28;45971;-71
2021/09/15 00:19:58;;;;;;;;;6.00;5.00;;;;;21.12;82.61;100728.66;4921509;28;46277;-71
2021/09/15 00:22:23;;;;;;;;;7.00;5.00;;;;;21.09;82.30;100734.44;4917291;28;47091;-71
2021/09/15 00:24:49;;;;;;;;;7.00;5.00;;;;;21.06;82.44;100729.53;4932990;28;45872;-71
2021/09/15 00:27:14;;;;;;;;;7.50;5.00;;;;;21.05;82.18;100738.63;4936076;28;45580;-71
2021/09/15 00:29:40;;;;;;;;;5.25;5.25;;;;;21.03;83.02;100738.84;4921001;28;45567;-71
2021/09/15 00:32:06;;;;;;;;;5.50;5.00;;;;;21.00;82.69;100735.78;4932991;28;54038;-71
2021/09/15 00:34:32;;;;;;;;;5.50;5.00;;;;;20.98;82.56;100732.47;4955287;28;46074;-71
2021/09/15 00:36:57;;;;;;;;;7.00;6.75;;;;;20.95;82.07;100723.00;4924132;28;45556;-71
2021/09/15 00:39:23;;;;;;;;;4.25;4.25;;;;;20.94;82.12;100715.16;4927829;28;45553;-71
2021/09/15 00:41:49;;;;;;;;;9.50;6.50;;;;;20.93;82.84;100721.56;4966979;28;46169;-71
2021/09/15 00:44:15;;;;;;;;;5.50;5.50;;;;;20.93;82.64;100713.50;4975507;28;45510;-71
2021/09/15 00:46:41;;;;;;;;;6.00;5.25;;;;;20.92;83.04;100706.47;4919656;28;45861;-71
2021/09/15 00:49:07;;;;;;;;;9.00;6.25;;;;;20.92;82.97;100709.16;4921630;28;45550;-71
2021/09/15 00:51:35;;;;;;;;;5.25;5.25;;;;;20.89;83.03;100707.75;4921854;28;45433;-72
2021/09/15 00:54:04;;;;;;;;;6.25;5.75;;;;;20.89;82.83;100707.75;4919231;28;45513;-72
2021/09/15 00:56:30;;;;;;;;;5.75;4.50;;;;;20.88;83.19;100708.78;4916953;28;49290;-71
2021/09/15 00:58:55;;;;;;;;;6.75;5.00;;;;;20.88;82.98;100705.28;4921105;28;45928;-71
2021/09/15 01:01:21;;;;;;;;;10.25;5.25;;;;;20.84;82.82;100707.56;4922588;28;45411;-71
2021/09/15 01:03:46;;;;;;;;;4.50;4.00;;;;;20.83;82.82;100704.06;4934144;28;45749;-71
2021/09/15 01:06:11;;;;;;;;;4.00;4.00;;;;;20.80;82.80;100703.69;4948038;28;45881;-71
2021/09/15 01:08:37;;;;;;;;;6.50;5.00;;;;;20.78;82.73;100703.91;4957908;28;45598;-71
2021/09/15 01:11:03;;;;;;;;;4.00;4.00;;;;;20.78;82.87;100708.44;4925940;28;46133;-71
2021/09/15 01:13:30;;;;;;;;;5.25;4.00;;;;;20.81;83.71;100708.00;4929642;28;45379;-71
2021/09/15 01:15:56;;;;;;;;;4.75;4.00;;;;;20.82;82.85;100713.19;4934052;28;45490;-71
2021/09/15 01:18:21;;;;;;;;;4.50;4.50;;;;;20.79;83.01;100702.03;4916367;28;45634;-71
2021/09/15 01:20:47;;;;;;;;;4.75;3.00;;;;;20.80;83.19;100692.94;4942031;28;45759;-71
2021/09/15 01:23:12;;;;;;;;;6.00;5.00;;;;;20.78;82.95;100693.16;4919070;28;45619;-71
2021/09/15 01:25:39;;;;;;;;;4.25;4.00;;;;;20.79;82.91;100686.72;4921445;28;45521;-71
2021/09/15 01:28:04;;;;;;;;;8.25;5.00;;;;;20.80;83.17;100691.09;4920284;28;45928;-71
2021/09/15 01:30:30;;;;;;;;;6.25;4.00;;;;;20.82;83.29;100680.94;4922480;28;46117;-71
2021/09/15 01:32:56;;;;;;;;;5.00;4.00;;;;;20.82;83.10;100682.78;4961322;28;45445;-70
2021/09/15 01:35:21;;;;;;;;;5.00;5.00;;;;;20.82;83.59;100688.16;4971414;28;45711;-71
2021/09/15 01:37:46;;;;;;;;;4.50;4.50;;;;;20.80;83.68;100691.09;4975522;28;47833;-71
2021/09/15 01:40:13;;;;;;;;;7.00;4.00;;;;;20.78;86.78;100693.16;4923561;28;47308;-72
2021/09/15 01:42:39;;;;;;;;;5.00;5.00;;;;;20.69;86.90;100688.25;4964972;28;45983;-71
2021/09/15 01:45:07;;;;;;;;;5.00;4.00;;;;;20.65;86.83;100692.41;4937563;28;45549;-72
2021/09/15 01:47:32;;;;;;;;;4.00;4.00;;;;;20.63;85.66;100687.28;4949849;28;45944;-71
2021/09/15 01:49:58;;;;;;;;;5.50;5.00;;;;;20.62;85.86;100688.28;4918078;28;46121;-71
2021/09/15 01:52:23;;;;;;;;;7.50;5.75;;;;;20.58;86.36;100687.09;4938002;28;45616;-71
2021/09/15 01:54:49;;;;;;;;;5.50;4.00;;;;;20.57;86.94;100690.81;4971067;28;45875;-71
2021/09/15 01:57:15;;;;;;;;;5.25;4.25;;;;;20.55;87.12;100684.88;4933872;28;46302;-71
2021/09/15 01:59:40;;;;;;;;;6.00;6.00;;;;;20.55;87.87;100680.31;4934850;28;47212;-71
2021/09/15 02:02:10;;;;;;;;;3.50;3.50;;;;;20.55;87.30;100683.00;4947397;28;45609;-71
2021/09/15 02:04:36;;;;;;;;;5.00;5.00;;;;;20.58;86.77;100681.75;4920970;28;45539;-71
2021/09/15 02:07:01;;;;;;;;;5.75;4.50;;;;;20.59;85.90;100686.06;4920924;28;46066;-71
2021/09/15 02:09:26;;;;;;;;;6.75;5.25;;;;;20.59;85.82;100696.78;4924917;28;46695;-71
2021/09/15 02:11:52;;;;;;;;;5.25;5.00;;;;;20.60;85.73;100704.66;4953343;28;45601;-71
2021/09/15 02:14:17;;;;;;;;;6.25;6.00;;;;;20.61;86.04;100700.09;4978337;28;45574;-71
2021/09/15 02:16:43;;;;;;;;;7.25;4.25;;;;;20.64;85.97;100710.38;4921730;28;45436;-72
2021/09/15 02:19:09;;;;;;;;;5.75;5.00;;;;;20.66;85.73;100707.50;4927164;28;45970;-72
2021/09/15 02:21:34;;;;;;;;;6.25;5.75;;;;;20.67;86.30;100701.91;4958676;28;45419;-71
2021/09/15 02:24:01;;;;;;;;;7.75;6.00;;;;;20.69;86.01;100701.69;4942054;28;45476;-70
2021/09/15 02:26:28;;;;;;;;;4.75;4.75;;;;;20.68;85.19;100702.75;4935209;28;45544;-72
2021/09/15 02:28:53;;;;;;;;;4.00;3.75;;;;;20.65;85.36;100695.94;4941285;28;47007;-72
2021/09/15 02:31:19;;;;;;;;;5.25;3.75;;;;;20.65;85.62;100703.16;4933898;28;45486;-72
2021/09/15 02:33:44;;;;;;;;;5.50;5.00;;;;;20.65;85.44;100695.94;4918724;28;45565;-72
2021/09/15 02:36:09;;;;;;;;;6.50;5.00;;;;;20.66;85.82;100700.25;4938507;28;45657;-72
2021/09/15 02:38:35;;;;;;;;;5.25;5.25;;;;;20.67;85.96;100701.06;4928639;28;47106;-72
2021/09/15 02:41:00;;;;;;;;;5.25;4.75;;;;;20.67;86.06;100701.91;4942669;28;45795;-72
2021/09/15 02:43:25;;;;;;;;;5.75;4.75;;;;;20.67;85.65;100703.75;4973725;28;45482;-72
2021/09/15 02:45:51;;;;;;;;;4.50;4.50;;;;;20.67;85.24;100715.31;4924377;28;45546;-72
2021/09/15 02:48:16;;;;;;;;;7.75;4.00;;;;;20.63;85.14;100719.50;4935304;28;46054;-72
2021/09/15 02:50:42;;;;;;;;;5.25;5.25;;;;;20.62;85.60;100728.56;4918130;28;46050;-72
2021/09/15 02:53:09;;;;;;;;;6.00;6.00;;;;;20.64;85.62;100728.38;4977272;28;45457;-72
2021/09/15 02:55:34;;;;;;;;;4.50;3.75;;;;;20.64;85.57;100721.13;4918344;28;54221;-72
2021/09/15 02:58:00;;;;;;;;;6.50;5.00;;;;;20.66;85.75;100713.69;4925758;28;45681;-72
2021/09/15 03:00:25;;;;;;;;;4.50;4.50;;;;;20.67;85.82;100723.38;4921107;28;45467;-73
2021/09/15 03:02:50;;;;;;;;;6.00;4.50;;;;;20.70;85.85;100717.59;4926000;28;46017;-71
2021/09/15 03:05:16;;;;;;;;;7.00;7.00;;;;;20.72;85.65;100723.59;4974783;28;45385;-71
2021/09/15 03:07:41;;;;;;;;;6.25;6.00;;;;;20.73;85.72;100713.66;4922340;28;47136;-72
2021/09/15 03:10:08;;;;;;;;;6.75;5.00;;;;;20.72;85.74;100707.47;4925013;28;45477;-72
2021/09/15 03:12:33;;;;;;;;;5.75;5.75;;;;;20.68;85.00;100697.38;4919344;28;45466;-72
2021/09/15 03:14:59;;;;;;;;;6.25;4.00;;;;;20.66;85.46;100702.13;4923535;28;45532;-72
2021/09/15 03:17:24;;;;;;;;;6.50;4.50;;;;;20.66;85.67;100702.13;4926782;28;46029;-72
2021/09/15 03:19:50;;;;;;;;;6.00;6.00;;;;;20.66;85.51;100697.56;4927127;28;45510;-72
2021/09/15 03:22:15;;;;;;;;;5.00;5.00;;;;;20.67;85.88;100698.41;4919469;28;45574;-72
2021/09/15 03:24:41;;;;;;;;;7.25;5.75;;;;;20.69;85.85;100690.94;4944386;28;45484;-71
2021/09/15 03:27:06;;;;;;;;;7.00;7.00;;;;;20.69;85.75;100697.13;4939959;28;46116;-72
2021/09/15 03:29:33;;;;;;;;;6.25;4.50;;;;;20.68;86.05;100690.13;4926303;28;46085;-73
2021/09/15 03:31:58;;;;;;;;;5.00;5.00;;;;;20.68;85.81;100698.19;4929581;28;45849;-72
2021/09/15 03:34:24;;;;;;;;;8.25;7.75;;;;;20.65;85.35;100690.56;4925176;28;45501;-72
2021/09/15 03:36:49;;;;;;;;;6.00;5.00;;;;;20.66;85.95;100702.13;4926032;28;47295;-72
2021/09/15 03:39:14;;;;;;;;;6.75;6.00;;;;;20.65;85.99;100704.00;4924698;28;45562;-72
2021/09/15 03:41:40;;;;;;;;;5.50;5.50;;;;;20.65;85.96;100709.38;4928613;28;45467;-72
2021/09/15 03:44:06;;;;;;;;;7.50;5.00;;;;;20.63;86.09;100714.13;4923327;28;45901;-72
2021/09/15 03:46:31;;;;;;;;;9.00;5.50;;;;;20.60;85.67;100710.00;4933109;28;46085;-72
2021/09/15 03:48:57;;;;;;;;;7.00;6.00;;;;;20.58;85.82;100708.59;4931734;28;45871;-72
2021/09/15 03:51:23;;;;;;;;;5.75;5.00;;;;;20.56;86.17;100713.34;4940237;28;46503;-72
2021/09/15 03:53:48;;;;;;;;;4.00;4.00;;;;;20.53;86.33;100705.69;4926675;28;55359;-72
2021/09/15 03:56:13;;;;;;;;;6.75;6.25;;;;;20.52;86.28;100715.59;4924353;28;47174;-72
2021/09/15 03:58:38;;;;;;;;;6.75;5.50;;;;;20.52;86.50;100717.44;4983813;28;45522;-69
2021/09/15 04:01:04;;;;;;;;;7.75;5.50;;;;;20.52;86.36;100718.28;4954019;28;45639;-70
2021/09/15 04:03:29;;;;;;;;;9.00;6.00;;;;;20.53;86.11;100728.00;4925660;28;46034;-71
2021/09/15 04:05:55;;;;;;;;;7.75;6.00;;;;;20.53;86.23;100724.50;4922960;28;46182;-71
2021/09/15 04:08:20;;;;;;;;;8.75;6.00;;;;;20.52;86.00;100717.44;4920440;28;45490;-71
2021/09/15 04:10:45;;;;;;;;;6.00;5.00;;;;;20.53;86.13;100716.44;4923439;28;46006;-71
2021/09/15 04:13:11;;;;;;;;;7.75;6.00;;;;;20.53;86.35;100721.81;4937615;28;45559;-72
2021/09/15 04:15:36;;;;;;;;;9.25;7.00;;;;;20.53;86.24;100719.94;4949888;28;46976;-72
2021/09/15 04:18:01;;;;;;;;;9.50;7.25;;;;;20.54;86.07;100726.13;4925887;28;45440;-71
2021/09/15 04:20:27;;;;;;;;;8.00;6.00;;;;;20.53;86.18;100733.34;4981848;28;46050;-71
2021/09/15 04:22:52;;;;;;;;;5.75;5.50;;;;;20.50;86.39;100731.09;4921160;28;45457;-71
2021/09/15 04:33:30;;;;;;;;;5.75;5.00;;;;;20.52;86.17;100717.44;4969113;28;46048;-71
2021/09/15 04:35:55;;;;;;;;;6.00;6.00;;;;;20.49;86.44;100720.56;4943352;28;45568;-71
2021/09/15 04:38:21;;;;;;;;;8.00;8.00;;;;;20.47;86.36;100709.22;4920502;28;45468;-71
2021/09/15 04:40:46;;;;;;;;;9.00;7.00;;;;;20.46;86.16;100713.78;4913948;28;45731;-71
2021/09/15 04:43:12;;;;;;;;;5.75;5.50;;;;;20.45;86.57;100717.50;4944885;28;45727;-72
2021/09/15 04:45:37;;;;;;;;;6.00;6.00;;;;;20.46;86.42;100713.78;4951759;28;45851;-71
2021/09/15 04:48:04;;;;;;;;;6.50;6.50;;;;;20.47;85.68;100709.22;4944514;28;45527;-72
2021/09/15 04:50:30;;;;;;;;;8.25;7.00;;;;;20.46;86.09;100715.63;4970418;28;45422;-71
2021/09/15 04:52:55;;;;;;;;;8.50;7.00;;;;;20.44;85.93;100717.72;4919663;28;53812;-71
2021/09/15 04:55:22;;;;;;;;;8.00;5.75;;;;;20.41;86.25;100722.47;4922629;28;45763;-71
2021/09/15 04:57:47;;;;;;;;;8.00;7.00;;;;;20.39;85.96;100713.81;4925421;28;45873;-71
2021/09/15 05:00:13;;;;;;;;;5.75;5.50;;;;;20.36;86.41;100718.78;4922990;28;45441;-70
2021/09/15 05:02:38;;;;;;;;;9.25;8.00;;;;;20.32;85.80;100707.63;4958690;28;45833;-71
2021/09/15 05:05:04;;;;;;;;;9.00;7.75;;;;;20.31;86.24;100719.44;4986590;28;45672;-71
2021/09/15 05:07:29;;;;;;;;;10.75;7.00;;;;;20.31;86.20;100724.78;4980731;28;45473;-71
2021/09/15 05:09:54;;;;;;;;;10.00;10.00;;;;;20.29;86.39;100732.22;4924624;28;45995;-71
2021/09/15 05:12:20;;;;;;;;;13.25;8.50;;;;;20.28;86.48;100730.59;4920530;28;45531;-71
2021/09/15 05:14:45;;;;;;;;;17.00;12.25;;;;;20.29;86.11;100728.72;4930647;28;46088;-71
2021/09/15 05:17:10;;;;;;;;;11.00;8.00;;;;;20.29;86.39;100728.72;4918185;28;56353;-71
2021/09/15 05:19:36;;;;;;;;;14.50;12.25;;;;;20.31;85.99;100737.41;4914955;28;45577;-72
2021/09/15 05:22:03;;;;;;;;;18.00;12.25;;;;;20.33;86.28;100736.16;4922744;28;45556;-71
2021/09/15 05:24:28;;;;;;;;;14.50;13.00;;;;;20.33;86.44;100735.31;4931764;28;45600;-71
2021/09/15 05:26:54;;;;;;;;;16.00;16.00;;;;;20.31;86.06;100737.41;4964045;28;45660;-71
2021/09/15 05:29:19;;;;;;;;;19.00;17.00;;;;;20.29;86.30;100737.59;4933726;28;46036;-71
2021/09/15 05:31:44;;;;;;;;;19.50;17.25;;;;;20.26;86.28;100735.34;4929193;28;45993;-71
2021/09/15 05:34:10;;;;;;;;;18.50;14.50;;;;;20.25;86.47;100739.06;4939967;28;46117;-68
2021/09/15 05:36:35;;;;;;;;;17.50;15.00;;;;;20.26;86.40;100737.22;4923281;28;45982;-74
2021/09/15 05:39:01;;;;;;;;;19.50;12.50;;;;;20.25;86.21;100735.53;4943528;28;45556;-70
2021/09/15 05:41:26;;;;;;;;;19.75;15.00;;;;;20.25;86.20;100743.59;4946421;28;45610;-70
2021/09/15 05:43:51;;;;;;;;;15.50;13.00;;;;;20.24;86.26;100739.28;4922669;28;46214;-70
2021/09/15 05:46:17;;;;;;;;;17.00;13.25;;;;;20.24;86.42;100742.78;4943983;28;45423;-70
2021/09/15 05:48:42;;;;;;;;;14.00;13.25;;;;;20.25;86.05;100744.44;4947744;28;45542;-70
2021/09/15 05:51:07;;;;;;;;;15.00;11.50;;;;;20.26;86.29;100748.75;4921498;28;45471;-70
2021/09/15 05:53:33;;;;;;;;;13.00;13.00;;;;;20.25;86.30;100749.81;4930126;28;46202;-71
2021/09/15 05:55:58;;;;;;;;;11.25;10.25;;;;;20.24;86.21;100758.88;4921978;28;45605;-72
2021/09/15 05:58:23;;;;;;;;;8.75;8.00;;;;;20.23;86.52;100759.94;4935028;28;45815;-71
2021/09/15 06:00:49;;;;;;;;;13.50;9.00;;;;;20.22;86.68;100766.31;4923655;28;45502;-72
2021/09/15 06:03:14;;;;;;;;;8.00;8.00;;;;;20.21;86.38;100764.69;4948971;28;45873;-72
2021/09/15 06:05:40;;;;;;;;;10.50;10.50;;;;;20.21;86.50;100772.72;4954243;28;45587;-74
2021/09/15 06:08:05;;;;;;;;;9.25;8.75;;;;;20.23;86.20;100767.13;4924549;28;45897;-72
2021/09/15 06:10:31;;;;;;;;;7.50;7.50;;;;;20.24;86.45;100771.47;4927257;28;45497;-70
2021/09/15 06:12:56;;;;;;;;;7.50;6.75;;;;;20.26;86.77;100767.53;4921195;28;46939;-69
2021/09/15 06:15:21;;;;;;;;;9.00;7.75;;;;;20.30;86.39;100770.63;4926564;28;45942;-72
2021/09/15 06:17:47;;;;;;;;;9.00;9.00;;;;;20.31;85.98;100769.59;4920264;28;45536;-72
2021/09/15 06:20:13;;;;;;;;;9.00;8.00;;;;;20.28;86.28;100765.47;4924408;28;45526;-72
2021/09/15 06:22:39;;;;;;;;;7.50;7.50;;;;;20.27;86.54;100773.72;4996722;28;47004;-72
2021/09/15 06:25:05;;;;;;;;;7.00;7.00;;;;;20.23;85.80;100765.28;4921138;28;45562;-72
2021/09/15 06:27:30;;;;;;;;;10.00;9.25;;;;;20.23;85.91;100765.28;4940086;28;45899;-72
2021/09/15 06:29:56;;;;;;;;;8.00;7.75;;;;;20.25;86.13;100765.91;4941608;28;45584;-72
2021/09/15 06:32:25;;;;;;;;;8.00;8.00;;;;;20.26;86.37;100775.59;4921252;28;46420;-72
2021/09/15 06:34:50;;;;;;;;;12.25;9.00;;;;;20.27;86.03;100779.91;4913396;28;45550;-72
2021/09/15 06:37:17;;;;;;;;;7.25;7.25;;;;;20.28;86.52;100772.72;4922959;28;45874;-72
2021/09/15 06:39:43;;;;;;;;;8.75;8.00;;;;;20.30;86.20;100768.78;4934482;28;45561;-72
2021/09/15 06:42:10;;;;;;;;;11.00;6.50;;;;;20.33;86.14;100772.91;4915925;28;45588;-72
2021/09/15 06:44:35;;;;;;;;;10.50;7.25;;;;;20.33;86.12;100776.41;4918909;28;45663;-73
2021/09/15 06:47:01;;;;;;;;;11.00;8.25;;;;;20.34;85.82;100775.34;4969466;28;57199;-75
2021/09/15 06:49:26;;;;;;;;;8.00;7.75;;;;;20.37;86.06;100780.28;4949568;28;45669;-71
2021/09/15 06:51:52;;;;;;;;;12.00;6.50;;;;;20.39;86.01;100777.41;4937554;28;45982;-73
2021/09/15 06:54:17;;;;;;;;;11.00;8.00;;;;;20.35;85.52;100785.06;4917851;28;45389;-71
2021/09/15 06:56:44;;;;;;;;;8.75;7.25;;;;;20.34;86.07;100785.25;4920527;28;46047;-68
2021/09/15 06:59:09;;;;;;;;;8.25;8.00;;;;;20.35;86.01;100785.06;4938252;28;46027;-69
2021/09/15 07:01:35;;;;;;;;;8.50;7.75;;;;;20.37;85.89;100779.47;4942725;28;45586;-69
2021/09/15 07:04:00;;;;;;;;;13.25;8.00;;;;;20.40;85.84;100779.88;4948680;28;45714;-69
2021/09/15 07:06:25;;;;;;;;;10.00;9.50;;;;;20.44;86.37;100784.81;4935186;28;45889;-68
2021/09/15 07:08:52;;;;;;;;;9.25;9.00;;;;;20.46;85.59;100783.56;4919191;28;45497;-70
2021/09/15 07:11:18;;;;;;;;;13.00;12.00;;;;;20.45;85.87;100786.44;4922199;28;46716;-70
2021/09/15 07:13:43;;;;;;;;;9.25;8.75;;;;;20.46;85.60;100788.13;4922906;28;46180;-74
2021/09/15 07:16:09;;;;;;;;;10.50;8.75;;;;;20.45;85.75;100795.34;4946521;28;45476;-81
2021/09/15 07:18:34;;;;;;;;;5.75;5.00;;;;;20.46;85.25;100794.31;4918483;28;45552;-79
2021/09/15 07:20:59;;;;;;;;;9.00;9.00;;;;;20.48;85.96;100799.47;4923236;28;45529;-79
2021/09/15 07:23:25;;;;;;;;;8.00;7.75;;;;;20.49;85.53;100801.09;4919018;28;45566;-78
2021/09/15 07:25:51;;;;;;;;;10.00;9.50;;;;;20.46;85.44;100817.66;4923100;28;45643;-78
2021/09/15 07:28:16;;;;;;;;;9.25;8.50;;;;;20.45;85.41;100813.28;4922030;28;45348;-78
2021/09/15 07:30:42;;;;;;;;;9.00;9.00;;;;;20.43;85.74;100810.03;4924533;28;46323;-78
2021/09/15 07:33:07;;;;;;;;;12.00;8.50;;;;;20.46;85.78;100810.41;4947697;28;46310;-78
2021/09/15 07:35:33;;;;;;;;;8.00;7.75;;;;;20.46;85.90;100814.97;4957658;28;45581;-78
2021/09/15 07:37:58;;;;;;;;;10.50;8.50;;;;;20.41;85.64;100820.97;4920681;28;45681;-78
2021/09/15 07:40:23;;;;;;;;;10.50;9.00;;;;;20.33;85.89;100822.03;4960599;28;46204;-85
2021/09/15 07:42:49;;;;;;;;;12.00;10.00;;;;;20.33;85.93;100822.03;4923863;28;46031;-82
2021/09/15 07:45:15;;;;;;;;;10.75;9.50;;;;;20.29;86.64;100818.09;4919639;28;45547;-77
2021/09/15 07:47:41;;;;;;;;;9.75;9.25;;;;;20.26;87.21;100823.91;4919508;28;45865;-76
2021/09/15 07:50:08;;;;;;;;;6.75;6.75;;;;;20.19;87.35;100821.22;4921300;28;47175;-72
2021/09/15 07:52:33;;;;;;;;;5.25;4.75;;;;;20.13;88.56;100815.91;4924420;28;45595;-75
2021/09/15 07:54:58;;;;;;;;;6.00;6.00;;;;;20.02;89.00;100827.25;4923554;28;46780;-76
2021/09/15 07:57:24;;;;;;;;;7.25;6.50;;;;;19.94;89.19;100829.13;4918016;28;52571;-76
2021/09/15 07:59:49;;;;;;;;;7.00;6.75;;;;;19.93;88.90;100826.63;4923787;28;47085;-76
2021/09/15 08:02:14;;;;;;;;;4.50;4.50;;;;;19.91;87.87;100816.13;4923512;28;45577;-76
2021/09/15 08:04:40;;;;;;;;;6.50;5.50;;;;;19.86;88.99;100815.13;4920489;28;45753;-78
2021/09/15 08:07:05;;;;;;;;;8.50;6.00;;;;;19.83;89.42;100821.72;4923055;28;47182;-76
2021/09/15 08:09:31;;;;;;;;;6.00;5.00;;;;;19.79;89.72;100819.66;4918771;28;46108;-77
2021/09/15 08:11:56;;;;;;;;;5.75;5.75;;;;;19.72;90.84;100825.03;4926726;28;45639;-77
2021/09/15 08:14:21;;;;;;;;;5.00;3.50;;;;;19.69;92.04;100820.91;4921230;28;45774;-77
2021/09/15 08:16:47;;;;;;;;;4.75;4.75;;;;;19.72;91.50;100825.03;4922348;28;49376;-78
2021/09/15 08:19:12;;;;;;;;;6.50;5.00;;;;;19.74;91.70;100831.00;4938960;28;45506;-78
2021/09/15 08:21:38;;;;;;;;;6.00;5.00;;;;;19.69;91.14;100828.94;4921235;28;45927;-77
2021/09/15 08:24:04;;;;;;;;;5.75;5.75;;;;;19.70;90.92;100825.22;4923919;28;45500;-80
2021/09/15 08:26:29;;;;;;;;;6.50;5.25;;;;;19.72;90.54;100833.88;4919677;28;45597;-77
2021/09/15 08:28:55;;;;;;;;;6.00;5.75;;;;;19.75;91.08;100836.16;4921920;28;45862;-76
2021/09/15 08:31:20;;;;;;;;;6.75;6.25;;;;;19.82;91.00;100836.16;4931653;28;46166;-77
2021/09/15 08:33:45;;;;;;;;;6.25;6.00;;;;;19.87;90.53;100840.91;4921361;28;45976;-77
2021/09/15 08:36:12;;;;;;;;;6.25;6.00;;;;;19.95;90.14;100844.19;4917065;28;45577;-77
2021/09/15 08:38:37;;;;;;;;;7.75;6.75;;;;;20.02;89.95;100846.03;4928541;28;46402;-78
2021/09/15 08:41:02;;;;;;;;;9.75;6.00;;;;;20.11;90.30;100850.16;4934593;28;45832;-77
2021/09/15 08:43:29;;;;;;;;;8.00;7.00;;;;;20.20;89.26;100846.19;4927898;28;46385;-78
2021/09/15 08:45:59;;;;;;;;;5.50;5.50;;;;;20.26;88.75;100845.38;4917959;28;45565;-78
2021/09/15 08:48:25;;;;;;;;;8.25;6.25;;;;;20.33;88.31;100848.88;4939064;28;46166;-78
2021/09/15 08:50:51;;;;;;;;;7.00;7.00;;;;;20.38;88.41;100838.31;4931649;28;46021;-79
2021/09/15 08:53:18;;;;;;;;;8.00;7.00;;;;;20.45;87.51;100846.34;4930572;28;45604;-78
2021/09/15 08:55:46;;;;;;;;;6.00;5.25;;;;;20.50;87.84;100843.84;4922358;28;45617;-78
2021/09/15 08:58:16;;;;;;;;;7.50;7.50;;;;;20.57;87.81;100852.75;4914664;28;47348;-78
2021/09/15 09:00:42;;;;;;;;;8.25;8.25;;;;;20.67;87.87;100852.25;4938598;28;45859;-79
2021/09/15 09:03:08;;;;;;;;;8.75;8.00;;;;;20.74;86.91;100850.38;4931009;28;46005;-75
2021/09/15 09:05:34;;;;;;;;;12.00;8.00;;;;;20.76;87.14;100853.69;4937778;28;45564;-79
2021/09/15 09:07:59;;;;;;;;;11.75;8.25;;;;;20.81;87.39;100853.03;4920306;28;46283;-79
2021/09/15 09:10:30;;;;;;;;;12.50;9.00;;;;;20.86;87.23;100852.41;4930501;28;45936;-80
2021/09/15 09:12:55;;;;;;;;;10.25;8.75;;;;;20.91;87.11;100849.91;4922507;28;45720;-79
2021/09/15 09:15:25;;;;;;;;;13.25;11.75;;;;;21.00;87.16;100854.00;4923248;28;45529;-79
2021/09/15 09:17:52;;;;;;;;;10.00;10.00;;;;;21.16;86.52;100858.84;4919424;28;46921;-79
2021/09/15 09:20:18;;;;;;;;;8.00;8.00;;;;;21.29;86.22;100857.09;4927463;28;45503;-78
2021/09/15 09:22:59;;;;;;;;;6.25;5.50;;;;;21.37;86.29;100856.88;4932930;28;45539;-77
2021/09/15 09:25:26;;;;;;;;;9.00;6.25;;;;;21.38;88.48;100855.81;4916949;28;45783;-80
2021/09/15 09:27:51;;;;;;;;;11.00;11.00;;;;;21.48;89.59;100848.13;4943702;28;46373;-76
2021/09/15 09:30:55;;;;;;;;;8.25;8.25;;;;;21.45;94.20;100851.25;4927252;28;45608;-77
2021/09/15 09:33:22;;;;;;;;;11.50;10.00;;;;;21.43;95.13;100861.38;4879725;28;45716;-79
2021/09/15 09:35:59;;;;;;;;;10.00;8.00;;;;;21.42;93.26;100863.25;4904225;28;45591;-79
2021/09/15 09:38:30;;;;;;;;;12.00;10.75;;;;;21.43;88.95;100864.06;4874454;28;46177;-76
2021/09/15 09:41:07;;;;;;;;;12.00;9.50;;;;;21.51;87.63;100863.81;4951820;28;45625;-74
2021/09/15 09:43:35;;;;;;;;;13.00;10.75;;;;;21.65;86.28;100861.84;4956168;28;48659;-75
2021/09/15 09:46:01;;;;;;;;;11.00;9.75;;;;;21.70;85.97;100862.00;4899820;28;46196;-75
2021/09/15 09:48:33;;;;;;;;;13.25;11.75;;;;;21.82;85.86;100862.13;4881690;28;47331;-75
2021/09/15 09:51:00;;;;;;;;;14.00;11.00;;;;;21.86;84.74;100857.97;4922277;28;45732;-75
2021/09/15 09:53:27;;;;;;;;;12.00;10.75;;;;;21.93;84.70;100853.31;4876527;28;45543;-76
2021/09/15 09:55:57;;;;;;;;;14.00;12.25;;;;;22.12;84.69;100863.06;4902732;28;45846;-75
2021/09/15 09:58:24;;;;;;;;;14.75;12.75;;;;;22.36;84.73;100857.06;4904297;28;45827;-75
2021/09/15 10:00:54;;;;;;;;;14.25;12.25;;;;;22.57;82.96;100863.84;4895812;28;45839;-76
2021/09/15 10:03:19;;;;;;;;;13.00;12.00;;;;;22.62;82.82;100861.31;4911055;28;45905;-75
2021/09/15 10:05:44;;;;;;;;;14.00;12.25;;;;;22.64;82.96;100859.22;4896975;28;45508;-78
2021/09/15 10:08:11;;;;;;;;;10.50;10.25;;;;;22.57;82.66;100858.47;4905003;28;47155;-78
2021/09/15 10:10:39;;;;;;;;;12.50;10.00;;;;;22.49;83.21;100863.13;4958959;28;45638;-74
2021/09/15 10:13:08;;;;;;;;;9.00;9.00;;;;;22.45;83.33;100861.94;4920718;28;45856;-71
2021/09/15 10:15:43;;;;;;;;;13.25;12.50;;;;;22.41;83.57;100865.28;4908077;28;45602;-70
2021/09/15 10:18:11;;;;;;;;;14.25;13.25;;;;;22.36;83.77;100862.47;4912101;28;49969;-72
2021/09/15 10:20:42;;;;;;;;;15.25;13.00;;;;;22.39;83.25;100857.44;4923102;28;45584;-70
2021/09/15 10:23:59;;;;;;;;;14.00;11.25;;;;;22.43;83.28;100858.63;4918724;28;45561;-78
2021/09/15 10:26:41;;;;;;;;;15.75;13.75;;;;;22.43;82.65;100858.63;4884585;28;45668;-72
2021/09/15 10:29:27;;;;;;;;;12.25;11.25;;;;;22.36;82.51;100849.81;4891054;28;45747;-72
2021/09/15 10:31:56;;;;;;;;;11.25;10.00;;;;;22.32;82.79;100851.28;4884827;28;45630;-73
2021/09/15 10:34:40;;;;;;;;;11.00;10.00;;;;;22.24;82.96;100849.72;4887642;28;45582;-72
2021/09/15 10:37:11;;;;;;;;;11.75;11.75;;;;;22.19;83.72;100854.09;4879846;28;45723;-73
2021/09/15 10:39:59;;;;;;;;;13.00;12.50;;;;;22.12;83.71;100860.38;4877798;28;46464;-75
2021/09/15 10:42:39;;;;;;;;;16.25;14.00;;;;;22.09;83.59;100865.38;4908177;28;46176;-71
2021/09/15 10:45:10;;;;;;;;;15.25;13.50;;;;;22.08;84.41;100855.66;4878168;28;45528;-72
2021/09/15 10:47:38;;;;;;;;;13.50;11.50;;;;;22.12;84.61;100870.31;4880153;28;45563;-72
2021/09/15 10:50:04;;;;;;;;;13.75;12.00;;;;;22.13;84.40;100869.25;4934586;28;46991;-72
2021/09/15 10:52:35;;;;;;;;;14.50;12.50;;;;;22.14;84.18;100868.22;4908925;28;45546;-69
2021/09/15 10:55:01;;;;;;;;;16.75;14.50;;;;;22.11;84.52;100872.19;4883820;28;45800;-70
2021/09/15 10:57:26;;;;;;;;;12.75;11.00;;;;;22.10;84.50;100870.53;4878764;28;45545;-74
2021/09/15 10:59:57;;;;;;;;;14.25;11.00;;;;;22.01;85.23;100861.13;4878084;28;46206;-72
2021/09/15 11:02:32;;;;;;;;;13.75;10.75;;;;;21.96;86.62;100870.88;4905995;28;45921;-73
2021/09/15 11:05:00;;;;;;;;;12.75;12.00;;;;;21.92;86.67;100875.88;4944764;28;45624;-73
2021/09/15 11:07:48;;;;;;;;;11.25;11.00;;;;;21.88;86.80;100869.28;4919221;28;45657;-73
2021/09/15 11:10:31;;;;;;;;;8.75;8.25;;;;;21.83;87.79;100869.13;4963600;28;47439;-74
2021/09/15 11:13:10;;;;;;;;;7.00;5.00;;;;;21.84;87.38;100870.81;4927134;28;45716;-72
2021/09/15 11:15:48;;;;;;;;;7.50;6.00;;;;;21.93;88.17;100872.13;4917561;28;45522;-72
2021/09/15 11:18:24;;;;;;;;;6.75;4.00;;;;;22.08;87.20;100872.66;4937090;28;45613;-72
2021/09/15 11:20:57;;;;;;;;;4.25;4.25;;;;;22.29;86.63;100875.97;4947495;28;45477;-70
2021/09/15 11:23:30;;;;;;;;;6.00;4.25;;;;;22.53;86.25;100871.56;4947136;28;45621;-75
2021/09/15 11:25:56;;;;;;;;;4.75;4.75;;;;;22.74;86.02;100867.59;4919858;28;46033;-74
2021/09/15 11:28:23;;;;;;;;;4.75;3.50;;;;;22.93;85.03;100873.78;4960620;28;45514;-75